Time;durP1;ratioP1;P1;durP2;ratioP2;P2;SDS_P1;SDS_P2;PMS_P1;PMS_P2;Temp;Humidity;BMP_temperature;BMP_pressure;BME280_temperature;BME280_humidity;BME280_pressure;Samples;Min_cycle;Max_cycle;Signal;HPM_P1;HPM_P2
2022/10/04 00:00:27;;;;;;;6.30;2.65;;;11.30;99.90;;;11.31;100.00;101798.31;5273322;28;20044;-86
2022/10/04 00:03:18;;;;;;;7.38;3.03;;;11.20;99.90;;;11.30;100.00;101791.31;5256790;28;20517;-86
2022/10/04 00:05:56;;;;;;;4.55;2.42;;;11.20;99.90;;;11.30;100.00;101788.69;5276206;28;20048;-86
2022/10/04 00:08:37;;;;;;;6.05;2.55;;;11.20;99.90;;;11.29;100.00;101784.31;5274204;28;20056;-87
2022/10/04 00:11:18;;;;;;;4.20;2.85;;;11.20;99.90;;;11.24;100.00;101791.00;5258797;28;20047;-86
2022/10/04 00:13:55;;;;;;;5.03;2.33;;;11.20;99.90;;;11.25;100.00;101795.41;5257310;28;20138;-87
2022/10/04 00:16:31;;;;;;;4.28;3.10;;;11.20;99.90;;;11.23;100.00;101797.06;5256391;28;20202;-87
2022/10/04 00:19:38;;;;;;;4.55;2.60;;;11.10;99.90;;;11.19;100.00;101798.59;5256959;28;20044;-86
2022/10/04 00:22:20;;;;;;;4.05;2.35;;;11.10;99.90;;;11.18;100.00;101806.38;5255525;28;20070;-87
2022/10/04 00:25:18;;;;;;;4.70;2.60;;;11.10;99.90;;;11.13;100.00;101804.44;5256945;28;20524;-86
2022/10/04 00:28:45;;;;;;;4.78;2.45;;;11.10;99.90;;;11.12;100.00;101807.84;5256484;28;20108;-86
2022/10/04 00:31:24;;;;;;;4.40;2.33;;;11.10;99.90;;;11.10;100.00;101798.19;5275004;28;20131;-86
2022/10/04 00:34:45;;;;;;;6.00;2.80;;;11.00;99.90;;;11.06;100.00;101802.34;5273431;28;20063;-85
2022/10/04 00:37:20;;;;;;;4.65;2.35;;;11.00;99.90;;;11.04;100.00;101792.66;5254989;28;20140;-86
2022/10/04 00:40:11;;;;;;;4.72;2.47;;;11.00;99.90;;;10.99;100.00;101786.31;5255572;28;20541;-86
2022/10/04 00:42:50;;;;;;;7.95;2.78;;;10.90;99.90;;;10.98;100.00;101781.94;5271953;28;20036;-85
2022/10/04 00:45:33;;;;;;;3.38;2.10;;;10.90;99.90;;;10.98;100.00;101782.81;5274305;28;20520;-86
2022/10/04 00:48:31;;;;;;;4.47;2.45;;;10.90;99.90;;;10.96;100.00;101779.25;5257889;28;20395;-86
2022/10/04 00:51:13;;;;;;;4.53;2.10;;;10.90;99.90;;;10.96;100.00;101776.63;5256254;28;20101;-85
2022/10/04 00:54:01;;;;;;;3.92;2.33;;;10.90;99.90;;;10.95;100.00;101769.59;5256987;28;20040;-85
2022/10/04 00:56:41;;;;;;;7.22;3.40;;;10.90;99.90;;;10.95;100.00;101761.78;5256048;28;20422;-87
2022/10/04 00:59:31;;;;;;;6.03;2.53;;;10.90;99.90;;;10.96;100.00;101758.38;5256515;28;20184;-86
2022/10/04 01:02:08;;;;;;;4.68;2.38;;;10.90;99.90;;;10.98;100.00;101761.94;5255738;28;20047;-86
2022/10/04 01:04:46;;;;;;;6.35;2.72;;;10.90;99.90;;;10.98;100.00;101751.50;5256699;28;20051;-86
2022/10/04 01:07:27;;;;;;;4.07;3.13;;;11.00;99.90;;;11.03;100.00;101752.63;5256357;28;20399;-86
2022/10/04 01:10:07;;;;;;;5.25;2.97;;;10.90;99.90;;;11.00;100.00;101749.84;5255964;28;20058;-86
2022/10/04 01:12:51;;;;;;;5.43;2.58;;;10.90;99.90;;;11.07;100.00;101749.31;5257248;28;20052;-86
2022/10/04 01:15:33;;;;;;;5.32;2.70;;;11.00;99.90;;;11.07;100.00;101746.72;5274709;28;20047;-86
2022/10/04 01:18:12;;;;;;;3.90;2.17;;;11.00;99.90;;;11.08;100.00;101752.81;5256758;28;20079;-87
2022/10/04 01:20:55;;;;;;;4.07;2.25;;;11.00;99.90;;;11.05;100.00;101747.47;5274090;28;20060;-86
2022/10/04 01:23:43;;;;;;;3.70;2.53;;;11.00;99.90;;;11.04;100.00;101751.81;5254304;28;20040;-86
2022/10/04 01:26:37;;;;;;;4.55;2.40;;;11.00;99.90;;;11.02;100.00;101745.63;5253912;28;20146;-86
2022/10/04 01:29:14;;;;;;;4.07;2.45;;;11.00;99.90;;;11.02;100.00;101750.84;5270098;28;20054;-87
2022/10/04 01:31:49;;;;;;;3.78;2.38;;;10.90;99.90;;;11.02;100.00;101761.28;5259672;28;20090;-86
2022/10/04 01:34:23;;;;;;;3.97;2.38;;;10.90;99.90;;;11.01;100.00;101749.03;5257946;28;20055;-87
2022/10/04 01:36:58;;;;;;;4.20;2.20;;;11.00;99.90;;;11.00;100.00;101757.69;5259882;28;20055;-86
2022/10/04 01:39:32;;;;;;;4.25;2.08;;;11.00;99.90;;;10.98;100.00;101750.63;5264709;28;20047;-88
2022/10/04 01:42:09;;;;;;;3.85;2.47;;;10.90;99.90;;;10.97;100.00;101744.50;5274999;28;20111;-87
2022/10/04 01:44:48;;;;;;;3.80;2.33;;;10.90;99.90;;;10.94;100.00;101741.72;5273231;28;20073;-88
2022/10/04 01:47:27;;;;;;;4.25;2.08;;;10.90;99.90;;;10.93;100.00;101737.34;5261388;28;20048;-86
2022/10/04 01:50:04;;;;;;;3.30;2.30;;;10.90;99.90;;;10.91;100.00;101728.56;5256773;28;20581;-86
2022/10/04 01:52:41;;;;;;;5.53;2.60;;;10.90;99.90;;;10.90;100.00;101732.00;5257913;28;20046;-86
2022/10/04 01:55:19;;;;;;;4.47;2.60;;;10.80;99.90;;;10.90;100.00;101731.09;5264360;28;20048;-86
2022/10/04 01:57:58;;;;;;;4.57;2.40;;;10.80;99.90;;;10.90;100.00;101731.09;5273156;28;20047;-85
2022/10/04 02:00:46;;;;;;;3.05;2.03;;;10.80;99.90;;;10.87;100.00;101731.81;5272283;28;20583;-86
2022/10/04 02:03:23;;;;;;;4.32;2.17;;;10.80;99.90;;;10.87;100.00;101732.72;5272797;28;20054;-85
2022/10/04 02:06:01;;;;;;;4.03;2.20;;;10.80;99.90;;;10.86;100.00;101728.31;5270931;28;20113;-85
2022/10/04 02:08:37;;;;;;;4.80;2.40;;;10.80;99.90;;;10.83;100.00;101729.91;5254005;28;20052;-89
2022/10/04 02:11:19;;;;;;;5.25;2.58;;;10.80;99.90;;;10.83;100.00;101735.13;5254233;28;20054;-86
2022/10/04 02:13:55;;;;;;;4.72;2.45;;;10.70;99.90;;;10.82;100.00;101733.31;5254893;28;20040;-86
2022/10/04 02:16:27;;;;;;;4.32;2.40;;;10.80;99.90;;;10.82;100.00;101734.22;5271331;28;20036;-86
2022/10/04 02:19:00;;;;;;;5.53;2.50;;;10.80;99.90;;;10.81;100.00;101736.75;5270700;28;20052;-85
2022/10/04 02:21:32;;;;;;;3.50;2.20;;;10.80;99.90;;;10.79;100.00;101733.19;5254846;28;20055;-86
2022/10/04 02:24:05;;;;;;;4.68;2.28;;;10.70;99.90;;;10.78;100.00;101734.00;5253289;28;20040;-85
2022/10/04 02:26:39;;;;;;;4.35;2.47;;;10.70;99.90;;;10.76;100.00;101736.53;5272396;28;20062;-87
2022/10/04 02:29:11;;;;;;;4.57;2.40;;;10.70;99.90;;;10.77;100.00;101721.78;5254307;28;20059;-86
2022/10/04 02:34:34;;;;;;;4.68;2.83;;;10.70;99.90;;;10.77;100.00;101734.81;5272335;28;20054;-86
2022/10/04 02:37:07;;;;;;;5.30;2.78;;;10.70;99.90;;;10.71;100.00;101724.97;5272051;28;20093;-86
2022/10/04 02:39:44;;;;;;;5.25;2.92;;;10.70;99.90;;;10.68;100.00;101724.81;5254625;28;20055;-85
2022/10/04 02:42:25;;;;;;;7.20;3.10;;;10.70;99.90;;;10.65;100.00;101719.47;5329889;22;20518;-73
2022/10/04 02:45:06;;;;;;;7.40;3.35;;;10.60;99.90;;;10.64;100.00;101716.78;5288487;28;20240;-74
2022/10/04 02:47:47;;;;;;;4.90;2.97;;;10.60;99.90;;;10.59;100.00;101707.03;5289408;28;20050;-73
2022/10/04 02:50:28;;;;;;;5.53;3.10;;;10.60;99.90;;;10.56;100.00;101700.75;5290729;28;20047;-73
2022/10/04 02:53:11;;;;;;;6.03;2.78;;;10.60;99.90;;;10.55;100.00;101692.03;5290561;28;20043;-73
2022/10/04 02:55:46;;;;;;;4.95;2.72;;;10.50;99.90;;;10.55;100.00;101697.25;5290427;28;20051;-70
2022/10/04 02:58:23;;;;;;;6.95;3.30;;;10.50;99.90;;;10.49;100.00;101702.16;5290408;28;20076;-71
2022/10/04 03:00:58;;;;;;;7.13;3.38;;;10.50;99.90;;;10.47;100.00;101698.59;5291157;28;20039;-72
2022/10/04 03:03:33;;;;;;;4.30;2.70;;;10.50;99.90;;;10.48;100.00;101700.38;5291406;28;20092;-74
2022/10/04 03:06:07;;;;;;;;;;;10.50;99.90;;;10.47;100.00;101682.94;5290172;28;20511;-72
2022/10/04 03:08:45;;;;;;;;;;;10.50;99.90;;;10.42;100.00;101683.53;5291374;28;19920;-73
2022/10/04 03:11:22;;;;;;;4.95;2.85;;;10.40;99.90;;;10.39;100.00;101679.06;5289757;28;19920;-72
2022/10/04 03:13:59;;;;;;;4.63;2.55;;;10.40;99.90;;;10.37;100.00;101680.72;5289655;28;20044;-74
2022/10/04 03:16:36;;;;;;;4.40;2.22;;;10.40;99.90;;;10.38;100.00;101686.81;5290916;28;20043;-73
2022/10/04 03:19:09;;;;;;;4.55;2.35;;;10.40;99.90;;;10.36;100.00;101678.00;5289497;28;20047;-72
2022/10/04 03:21:44;;;;;;;5.00;2.45;;;10.40;99.90;;;10.35;100.00;101677.13;5290601;28;20572;-72
2022/10/04 03:24:21;;;;;;;3.95;2.40;;;10.30;99.90;;;10.36;100.00;101678.00;5290447;28;20113;-73
2022/10/04 03:26:56;;;;;;;4.88;2.70;;;10.40;99.90;;;10.35;100.00;101682.34;5290604;28;20483;-73
2022/10/04 03:29:32;;;;;;;5.15;2.90;;;10.40;99.90;;;10.36;100.00;101672.81;5290479;28;20492;-72
2022/10/04 03:32:05;;;;;;;4.68;2.45;;;10.40;99.90;;;10.37;100.00;101665.09;5290874;28;20039;-74
2022/10/04 03:34:40;;;;;;;5.03;2.80;;;10.40;99.90;;;10.39;100.00;101659.94;5290368;28;20045;-73
2022/10/04 03:37:18;;;;;;;4.18;2.30;;;10.40;99.90;;;10.40;100.00;101670.44;5290434;28;20059;-72
2022/10/04 03:39:53;;;;;;;4.43;2.88;;;10.40;99.90;;;10.41;100.00;101664.41;5290456;28;20752;-72
2022/10/04 03:42:28;;;;;;;4.53;2.63;;;10.40;99.90;;;10.41;100.00;101650.47;5290030;28;20044;-72
2022/10/04 03:45:06;;;;;;;5.97;2.78;;;10.40;99.90;;;10.37;100.00;101644.22;5289999;28;20089;-72
2022/10/04 03:47:43;;;;;;;5.75;3.10;;;10.40;99.90;;;10.33;100.00;101634.47;5289806;28;20048;-72
2022/10/04 03:50:19;;;;;;;7.13;2.78;;;10.30;99.90;;;10.34;100.00;101644.06;5289641;28;20040;-73
2022/10/04 03:52:55;;;;;;;5.40;2.75;;;10.40;99.90;;;10.34;100.00;101649.28;5289764;28;20114;-71
2022/10/04 03:55:35;;;;;;;4.05;2.28;;;10.40;99.90;;;10.34;100.00;101641.47;5289838;28;20137;-72
2022/10/04 03:58:09;;;;;;;4.28;2.65;;;10.30;99.90;;;10.35;100.00;101648.44;5288995;28;20420;-72
2022/10/04 04:00:57;;;;;;;3.70;2.38;;;10.40;99.90;;;10.37;100.00;101649.44;5289194;28;20051;-72
2022/10/04 04:03:34;;;;;;;3.95;2.30;;;10.40;99.90;;;10.38;100.00;101655.56;5289552;28;20047;-72
2022/10/04 04:06:14;;;;;;;4.30;2.60;;;10.40;99.90;;;10.38;100.00;101661.66;5289945;28;20040;-72
2022/10/04 04:08:52;;;;;;;6.82;2.85;;;10.40;99.90;;;10.36;100.00;101658.06;5287751;28;20507;-71
2022/10/04 04:11:27;;;;;;;3.97;2.40;;;10.30;99.90;;;10.35;100.00;101660.59;5289200;28;20039;-73
2022/10/04 04:14:06;;;;;;;5.78;2.85;;;10.30;99.90;;;10.33;100.00;101657.91;5289530;28;20054;-71
2022/10/04 04:16:40;;;;;;;5.53;2.90;;;10.30;99.90;;;10.31;100.00;101655.25;5289337;28;20058;-71
2022/10/04 04:19:18;;;;;;;6.40;3.28;;;10.30;99.90;;;10.29;100.00;101651.66;5287635;28;20059;-72
2022/10/04 04:21:54;;;;;;;4.65;3.28;;;10.30;99.90;;;10.27;100.00;101655.00;5287582;28;20546;-72
2022/10/04 04:24:30;;;;;;;6.18;2.80;;;10.30;99.90;;;10.26;100.00;101650.63;5289230;28;20044;-71
2022/10/04 04:27:04;;;;;;;7.07;3.22;;;10.30;99.90;;;10.23;100.00;101640.91;5289377;28;20048;-71
2022/10/04 04:29:45;;;;;;;5.63;2.97;;;10.20;99.90;;;10.20;100.00;101639.84;5287483;28;20055;-71
2022/10/04 04:32:23;;;;;;;7.20;3.40;;;10.20;99.90;;;10.12;100.00;101628.16;5289183;28;20127;-71
2022/10/04 04:35:05;;;;;;;5.85;2.88;;;10.20;99.90;;;10.10;100.00;101628.06;5289187;28;20044;-71
2022/10/04 04:37:38;;;;;;;5.13;2.92;;;10.20;99.90;;;10.11;100.00;101629.00;5289217;28;20453;-72
2022/10/04 04:40:21;;;;;;;4.05;2.53;;;10.20;99.90;;;10.14;100.00;101639.56;5288779;28;20047;-71
2022/10/04 04:42:58;;;;;;;6.30;2.90;;;10.10;99.90;;;10.12;100.00;101652.50;5288831;28;20134;-73
2022/10/04 04:45:32;;;;;;;5.20;2.72;;;10.10;99.90;;;10.14;100.00;101655.19;5289017;28;20040;-72
2022/10/04 04:48:06;;;;;;;4.93;2.55;;;10.20;99.90;;;10.13;100.00;101651.69;5287417;28;20058;-72
2022/10/04 04:50:40;;;;;;;5.40;2.33;;;10.10;99.90;;;10.13;100.00;101642.97;5288576;28;20040;-72
2022/10/04 04:53:17;;;;;;;5.25;2.80;;;10.10;99.90;;;10.10;100.00;101658.44;5288949;28;20040;-72
2022/10/04 04:55:52;;;;;;;3.90;2.70;;;10.10;99.90;;;10.06;100.00;101653.09;5288803;28;20392;-71
2022/10/04 04:58:28;;;;;;;4.97;2.55;;;10.10;99.90;;;10.05;100.00;101655.63;5288803;28;20113;-71
2022/10/04 05:01:05;;;;;;;6.15;2.60;;;10.00;99.90;;;10.03;100.00;101642.50;5288520;28;20040;-71
2022/10/04 05:03:38;;;;;;;5.47;3.00;;;10.00;99.90;;;10.00;100.00;101642.34;5288619;28;20074;-71
2022/10/04 05:06:25;;;;;;;4.57;2.75;;;10.00;99.90;;;10.00;100.00;101647.56;5288470;28;20039;-71
2022/10/04 05:08:58;;;;;;;6.20;2.95;;;10.00;99.90;;;10.00;100.00;101650.19;5288109;28;20065;-71
2022/10/04 05:11:33;;;;;;;5.70;2.58;;;10.00;99.90;;;10.01;100.00;101648.47;5288748;28;20142;-72
2022/10/04 05:14:08;;;;;;;5.80;2.70;;;10.00;99.90;;;9.99;100.00;101643.19;5287007;28;20142;-72
2022/10/04 05:16:44;;;;;;;3.15;2.20;;;10.00;99.90;;;9.99;100.00;101643.19;5288336;28;20047;-71
2022/10/04 05:19:21;;;;;;;4.43;2.78;;;10.00;99.90;;;10.01;100.00;101638.03;5288158;28;20039;-73
2022/10/04 05:21:56;;;;;;;4.45;2.67;;;10.00;99.90;;;10.01;100.00;101619.81;5287043;28;20040;-72
2022/10/04 05:24:32;;;;;;;5.95;3.30;;;10.00;99.90;;;9.98;100.00;101623.16;5288202;28;20051;-71
2022/10/04 05:27:07;;;;;;;5.20;2.88;;;10.00;99.90;;;9.96;100.00;101632.59;5288058;28;20036;-72
2022/10/04 05:29:52;;;;;;;4.40;2.72;;;10.00;99.90;;;9.95;100.00;101628.19;5286697;28;20043;-72
2022/10/04 05:32:35;;;;;;;5.90;2.75;;;10.00;99.90;;;9.93;100.00;101618.53;5287903;28;20121;-70
2022/10/04 05:35:17;;;;;;;5.05;2.58;;;9.90;99.90;;;9.93;100.00;101609.00;5287465;28;20518;-72
2022/10/04 05:38:00;;;;;;;5.63;3.38;;;10.00;99.90;;;9.92;100.00;101616.75;5288281;28;20379;-70
2022/10/04 05:40:46;;;;;;;5.38;2.88;;;9.90;99.90;;;9.92;100.00;101612.44;5285238;28;20054;-71
2022/10/04 05:43:29;;;;;;;6.22;2.75;;;9.90;99.90;;;9.92;100.00;101616.75;5287278;28;20039;-70
2022/10/04 05:46:24;;;;;;;4.75;2.58;;;9.90;99.90;;;9.93;100.00;101616.81;5287806;28;20051;-63
2022/10/04 05:49:03;;;;;;;5.38;2.85;;;9.90;99.90;;;9.98;100.00;101622.28;5283193;28;20055;-63
2022/10/04 05:51:50;;;;;;;4.53;2.50;;;10.00;99.90;;;10.03;100.00;101621.66;5287142;28;20039;-63
2022/10/04 05:54:24;;;;;;;4.60;2.67;;;10.00;99.90;;;10.05;100.00;101612.22;5287407;28;20058;-63
2022/10/04 05:57:39;;;;;;;5.55;2.80;;;10.10;99.90;;;10.10;100.00;101611.53;5287245;28;20080;-63
2022/10/04 06:00:16;;;;;;;6.75;2.97;;;10.10;99.90;;;10.12;100.00;101615.16;5222161;28;20053;-63
2022/10/04 06:03:11;;;;;;;4.85;2.85;;;10.10;99.90;;;10.13;100.00;101606.50;5221965;28;20162;-63
2022/10/04 06:05:53;;;;;;;4.60;2.55;;;10.20;99.90;;;10.15;100.00;101610.06;5272731;28;20445;-58
2022/10/04 06:08:50;;;;;;;5.13;2.85;;;10.20;99.90;;;10.17;100.00;101614.56;5287148;28;20149;-56
2022/10/04 06:11:40;;;;;;;5.05;2.70;;;10.20;99.90;;;10.20;100.00;101609.47;5286938;28;20051;-58
2022/10/04 06:14:49;;;;;;;6.13;2.65;;;10.20;99.90;;;10.27;100.00;101610.72;5287117;28;20051;-56
2022/10/04 06:17:49;;;;;;;6.47;3.00;;;10.30;99.90;;;10.29;100.00;101609.94;5287161;28;20043;-59
2022/10/04 06:20:59;;;;;;;6.18;3.17;;;10.30;99.90;;;10.37;100.00;101609.44;5288882;28;20043;-57
2022/10/04 06:23:35;;;;;;;6.57;2.70;;;10.40;99.90;;;10.43;100.00;101600.22;5291137;28;20515;-58
2022/10/04 06:26:14;;;;;;;7.32;3.10;;;10.40;99.90;;;10.50;100.00;101602.31;5290716;28;20039;-56
2022/10/04 06:28:49;;;;;;;6.18;3.30;;;10.50;99.90;;;10.59;100.00;101615.75;5290836;28;20039;-56
2022/10/04 06:32:10;;;;;;;7.75;2.88;;;10.60;99.90;;;10.68;100.00;101615.28;5290828;28;20066;-57
2022/10/04 06:35:30;;;;;;;6.60;2.92;;;10.60;99.90;;;10.79;100.00;101614.09;5290665;28;20051;-56
2022/10/04 06:38:26;;;;;;;5.93;2.90;;;10.70;99.90;;;10.94;100.00;101610.41;5253223;27;20052;-57
2022/10/04 06:41:30;;;;;;;7.80;4.15;;;10.90;99.90;;;11.17;100.00;101606.25;5290471;28;20134;-58
2022/10/04 06:44:22;;;;;;;5.68;3.13;;;11.00;99.90;;;11.24;100.00;101597.88;5286601;28;20156;-57
2022/10/04 06:47:11;;;;;;;6.60;3.50;;;11.10;99.90;;;11.23;100.00;101603.91;5290358;28;20404;-56
2022/10/04 06:49:50;;;;;;;5.80;3.47;;;11.20;99.90;;;11.13;100.00;101589.53;5290460;28;20790;-57
2022/10/04 06:52:57;;;;;;;5.72;2.72;;;11.20;99.90;;;11.22;100.00;101589.09;5290471;28;20046;-57
2022/10/04 06:55:56;;;;;;;6.45;2.95;;;11.20;99.90;;;11.62;100.00;101596.94;5290360;28;20058;-57
2022/10/04 06:59:03;;;;;;;6.38;3.20;;;11.40;99.90;;;12.29;100.00;101607.63;5290411;28;20044;-56
2022/10/04 07:01:38;;;;;;;5.40;2.78;;;11.80;99.90;;;12.98;100.00;101605.13;5290028;28;20040;-56
2022/10/04 07:04:24;;;;;;;5.88;2.83;;;12.40;99.90;;;13.51;100.00;101614.09;5289797;28;20056;-57
2022/10/04 07:07:25;;;;;;;9.07;2.83;;;12.80;99.90;;;13.89;100.00;101617.13;5289695;28;20047;-56
2022/10/04 07:10:16;;;;;;;5.00;2.60;;;13.20;99.90;;;14.04;100.00;101621.19;5289268;28;20039;-57
2022/10/04 07:13:04;;;;;;;5.45;2.60;;;13.50;99.90;;;13.95;100.00;101617.34;5289388;28;20047;-59
2022/10/04 07:15:54;;;;;;;;;;;13.50;99.90;;;13.87;100.00;101614.47;5290083;27;20036;-56
2022/10/04 07:18:34;;;;;;;4.95;2.95;;;13.50;99.90;;;13.85;100.00;101611.81;5289425;28;19969;-59
2022/10/04 07:21:12;;;;;;;4.80;2.53;;;13.50;99.90;;;13.95;100.00;101614.72;5289335;28;20051;-56
2022/10/04 07:23:50;;;;;;;5.13;2.80;;;13.60;99.90;;;14.32;100.00;101625.63;5289401;28;20417;-56
2022/10/04 07:26:29;;;;;;;4.85;2.50;;;13.80;99.90;;;14.73;100.00;101620.81;5287869;28;20044;-58
2022/10/04 07:29:23;;;;;;;4.72;2.20;;;14.10;99.90;;;15.13;100.00;101619.41;5288780;28;20051;-59
2022/10/04 07:32:09;;;;;;;3.17;2.30;;;14.40;99.90;;;15.43;99.58;101615.03;5287780;28;20407;-56
2022/10/04 07:34:51;;;;;;;5.97;2.85;;;14.70;99.90;;;15.59;97.78;101612.84;5289102;28;20050;-58
2022/10/04 07:37:28;;;;;;;4.53;2.05;;;14.80;99.90;;;15.57;96.18;101609.25;5288038;28;20595;-56
2022/10/04 07:40:05;;;;;;;4.57;2.53;;;14.90;99.90;;;15.34;96.15;101604.25;5288783;28;20063;-56
2022/10/04 07:42:47;;;;;;;3.15;2.17;;;14.90;99.90;;;15.03;96.87;101612.09;5288754;28;20043;-57
2022/10/04 07:45:24;;;;;;;7.03;3.53;;;14.60;99.90;;;14.72;98.82;101621.66;5288684;28;20035;-56
2022/10/04 07:48:12;;;;;;;6.15;2.60;;;14.40;99.90;;;14.49;100.00;101609.56;5288834;28;20124;-56
2022/10/04 07:50:57;;;;;;;4.75;2.22;;;14.20;99.90;;;14.61;100.00;101620.47;5288383;28;20047;-56
2022/10/04 07:53:38;;;;;;;4.93;2.53;;;14.20;99.90;;;15.28;100.00;101625.09;5302756;27;20062;-56
2022/10/04 07:56:17;;;;;;;4.25;2.63;;;14.50;99.90;;;15.63;99.06;101623.47;5300047;27;20066;-58
2022/10/04 07:59:03;;;;;;;5.75;2.63;;;14.80;99.90;;;15.79;96.93;101630.06;5298042;27;20043;-59
2022/10/04 08:01:44;;;;;;;5.05;2.60;;;15.00;99.90;;;15.73;96.50;101624.63;5293971;27;20035;-56
2022/10/04 08:04:32;;;;;;;6.78;2.63;;;15.00;99.90;;;16.00;95.71;101624.47;5288819;28;20047;-57
2022/10/04 08:07:15;;;;;;;4.60;2.85;;;15.20;99.90;;;16.44;93.73;101627.31;5289082;28;20051;-57
2022/10/04 08:10:01;;;;;;;6.35;2.75;;;15.50;99.90;;;16.87;92.19;101631.84;5288474;28;20093;-57
2022/10/04 08:12:48;;;;;;;7.78;3.65;;;15.80;99.90;;;16.66;88.97;101633.97;5288539;28;20130;-58
2022/10/04 08:15:36;;;;;;;5.85;2.35;;;15.90;99.90;;;16.25;91.00;101633.88;5288940;28;20488;-56
2022/10/04 08:18:26;;;;;;;7.72;3.72;;;15.60;99.90;;;16.06;91.88;101636.88;5288866;28;20407;-56
2022/10/04 08:21:02;;;;;;;6.97;3.03;;;15.50;99.90;;;15.83;92.83;101639.78;5288407;28;20884;-56
2022/10/04 08:23:57;;;;;;;6.40;2.80;;;15.30;99.90;;;15.68;93.48;101632.38;5288827;28;20048;-56
2022/10/04 08:26:45;;;;;;;6.38;2.58;;;15.20;99.90;;;15.39;94.18;101634.19;5288674;28;20096;-58
2022/10/04 08:29:51;;;;;;;4.75;2.50;;;15.00;99.90;;;15.05;96.23;101634.91;5288206;28;20051;-58
2022/10/04 08:32:55;;;;;;;4.93;2.53;;;14.80;99.90;;;14.79;98.20;101639.38;5288608;28;20047;-57
2022/10/04 08:35:36;;;;;;;5.18;2.58;;;14.60;99.90;;;14.68;98.93;101645.16;5287137;28;20051;-56
2022/10/04 08:38:41;;;;;;;5.80;2.78;;;14.40;99.90;;;14.65;100.00;101631.06;5288433;28;20556;-58
2022/10/04 08:44:41;;;;;;;6.97;2.33;;;14.50;99.90;;;15.42;100.00;101621.13;5324708;22;20519;-55
2022/10/04 08:48:06;;;;;;;4.75;2.47;;;14.80;99.90;;;15.71;99.09;101621.06;5267044;28;20093;-57
2022/10/04 08:51:31;;;;;;;4.45;2.70;;;15.10;99.90;;;15.88;97.45;101625.03;5250026;28;20105;-57
2022/10/04 08:54:45;;;;;;;4.03;2.35;;;15.40;99.90;;;16.20;96.80;101622.34;5263349;28;20060;-57
2022/10/04 08:58:09;;;;;;;5.90;2.65;;;15.70;99.90;;;16.45;95.50;101619.47;5266981;28;20112;-59
2022/10/04 09:01:32;;;;;;;5.95;2.63;;;15.90;99.90;;;16.59;93.54;101613.63;5264353;28;20056;-56
2022/10/04 09:04:53;;;;;;;5.05;2.30;;;16.20;99.90;;;16.80;93.67;101611.50;5254182;28;20504;-58
2022/10/04 09:07:50;;;;;;;3.80;2.53;;;16.40;99.90;;;17.06;93.00;101612.97;5266776;28;20044;-60
2022/10/04 09:10:56;;;;;;;8.13;3.08;;;16.60;99.90;;;17.40;91.19;101616.28;5266397;28;20404;-56
2022/10/04 09:13:41;;;;;;;3.67;1.92;;;16.90;99.60;;;17.51;90.17;101617.38;5266724;28;20048;-57
2022/10/04 09:16:18;;;;;;;6.82;2.78;;;17.00;99.00;;;17.62;89.17;101607.94;5266962;28;20040;-55
2022/10/04 09:19:16;;;;;;;5.40;2.10;;;17.20;98.70;;;17.80;89.97;101611.81;5266293;28;20263;-63
2022/10/04 09:22:18;;;;;;;4.78;2.08;;;17.30;98.80;;;18.12;88.48;101615.88;5266626;28;20126;-60
2022/10/04 09:25:22;;;;;;;3.80;2.20;;;17.60;98.40;;;18.34;87.34;101616.25;5266753;28;20048;-61
2022/10/04 09:28:15;;;;;;;5.57;2.45;;;17.80;97.80;;;18.51;85.82;101614.75;5266504;28;20052;-56
2022/10/04 09:31:13;;;;;;;5.22;2.20;;;18.00;97.50;;;18.62;85.74;101615.81;5266183;28;20068;-58
2022/10/04 09:34:21;;;;;;;5.30;2.10;;;18.10;97.20;;;18.83;86.82;101601.16;5266381;28;20555;-58
2022/10/04 09:37:11;;;;;;;4.75;2.33;;;18.30;97.50;;;19.16;86.33;101601.59;5266917;28;20040;-58
2022/10/04 09:40:33;;;;;;;3.58;2.20;;;18.60;97.40;;;19.51;84.71;101588.81;5265758;28;20048;-59
2022/10/04 09:44:05;;;;;;;3.55;1.90;;;19.00;96.60;;;19.97;81.70;101588.41;5266252;28;20040;-60
2022/10/04 09:47:13;;;;;;;3.88;2.17;;;19.40;95.60;;;20.20;81.17;101584.16;5245918;28;20131;-59
2022/10/04 09:50:38;;;;;;;5.03;2.15;;;19.60;94.80;;;20.38;79.40;101583.44;5266069;28;20052;-56
2022/10/04 09:53:29;;;;;;;;;;;19.80;93.70;;;20.62;78.67;101579.22;5227499;28;20529;-57
2022/10/04 09:57:10;;;;;;;2.40;1.70;;;20.10;93.30;;;20.88;76.70;101587.31;5269599;28;19924;-61
2022/10/04 10:00:08;;;;;;;3.95;1.98;;;20.30;93.20;;;21.04;75.87;101578.53;5180068;28;20054;-59
2022/10/04 10:03:40;;;;;;;4.15;1.70;;;20.50;91.80;;;21.01;75.16;101583.84;5184891;28;20046;-58
2022/10/04 10:06:47;;;;;;;4.15;1.77;;;20.50;91.30;;;20.89;75.91;101582.00;5270410;28;20036;-58
2022/10/04 10:16:18;;;;;;;2.78;1.65;;;20.60;90.70;;;21.25;76.19;101573.31;5246841;28;20041;-59
2022/10/04 10:19:20;;;;;;;4.57;1.92;;;20.60;90.90;;;21.21;75.69;101570.66;5245748;28;20044;-59
2022/10/04 10:22:14;;;;;;;3.63;2.00;;;20.70;90.40;;;21.11;76.27;101570.59;5263377;28;20322;-56
2022/10/04 10:25:13;;;;;;;3.65;1.75;;;20.60;90.60;;;21.06;76.70;101571.47;5280237;28;20051;-56
2022/10/04 10:28:18;;;;;;;4.10;1.80;;;20.60;90.70;;;21.11;77.02;101569.72;5274240;28;20039;-62
2022/10/04 10:31:12;;;;;;;4.30;1.92;;;20.60;90.80;;;21.31;76.01;101568.06;5268886;28;20119;-59
2022/10/04 10:34:51;;;;;;;3.72;2.10;;;20.70;90.50;;;21.35;75.72;101559.22;5269326;28;20376;-60
2022/10/04 10:37:34;;;;;;;;;;;20.70;90.20;;;21.42;76.45;101561.91;5204391;28;20107;-60
2022/10/04 10:40:32;;;;;;;4.32;1.90;;;20.90;90.50;;;21.43;75.68;101561.00;5258863;28;19920;-60
2022/10/04 10:43:31;;;;;;;5.43;2.13;;;20.80;90.00;;;21.48;75.48;101562.81;5264990;28;20048;-60
2022/10/04 10:46:24;;;;;;;3.88;1.80;;;20.90;89.90;;;21.31;76.60;101561.88;5264575;28;20040;-57
2022/10/04 10:49:37;;;;;;;3.13;1.70;;;20.80;90.30;;;21.18;77.06;101560.91;5268156;28;20048;-60
2022/10/04 10:52:41;;;;;;;4.47;2.03;;;20.70;90.40;;;20.82;78.36;101559.00;5269592;28;20412;-56
2022/10/04 10:55:48;;;;;;;5.45;2.03;;;20.50;90.60;;;20.96;78.41;101548.47;5258906;28;20079;-58
2022/10/04 10:59:20;;;;;;;5.80;2.33;;;20.50;90.90;;;20.95;78.06;101546.69;5269031;28;20036;-59
2022/10/04 11:02:37;;;;;;;5.03;2.10;;;20.50;90.70;;;21.04;78.27;101552.03;5232737;28;20447;-57
2022/10/04 11:06:14;;;;;;;6.13;2.20;;;20.50;90.90;;;20.92;78.11;101549.31;5157809;28;20140;-62
2022/10/04 11:09:29;;;;;;;3.03;1.70;;;20.50;90.60;;;20.98;78.85;101536.09;5268154;28;20066;-60
2022/10/04 11:12:50;;;;;;;4.53;1.88;;;20.40;91.10;;;21.10;79.25;101538.78;5269061;28;20076;-58
2022/10/04 11:15:50;;;;;;;6.97;2.20;;;20.50;91.30;;;21.10;76.88;101541.44;5268263;28;20052;-57
2022/10/04 11:18:44;;;;;;;;;;;20.50;90.40;;;20.98;72.81;101530.78;5265557;28;20040;-56
2022/10/04 11:22:06;;;;;;;3.00;1.75;;;20.50;86.90;;;20.87;71.83;101538.72;5268335;28;20003;-58
2022/10/04 11:25:12;;;;;;;4.00;2.55;;;20.40;85.20;;;20.75;70.86;101507.75;5268610;28;20412;-59
2022/10/04 11:27:54;;;;;;;3.63;1.63;;;20.30;83.90;;;20.85;72.96;101513.97;5260261;28;20044;-58
2022/10/04 11:30:30;;;;;;;3.28;1.55;;;20.30;85.70;;;21.05;73.11;101511.38;5262151;28;20051;-58
2022/10/04 11:33:42;;;;;;;2.25;1.63;;;20.50;86.50;;;21.26;73.19;101511.47;5265332;28;20047;-60
2022/10/04 11:36:49;;;;;;;2.45;1.60;;;20.60;86.40;;;21.44;71.47;101504.44;5264136;28;20094;-61
2022/10/04 11:39:43;;;;;;;2.88;1.60;;;20.80;84.90;;;21.55;74.22;101505.34;5267461;28;20036;-57
2022/10/04 11:42:29;;;;;;;5.00;1.80;;;20.90;87.00;;;21.61;75.05;101506.22;5267384;28;20089;-59
2022/10/04 11:45:26;;;;;;;3.22;1.83;;;21.00;87.80;;;21.55;74.65;101497.38;5267843;28;20119;-59
2022/10/04 11:48:13;;;;;;;2.63;1.50;;;21.00;87.10;;;21.32;73.73;101490.28;5267960;28;20040;-57